Time,TemperatureF,DewpointF,PressureIn,WindDirection,WindDirectionDegrees,WindSpeedMPH,WindSpeedGustMPH,Humidity,HourlyPrecipIn,Conditions,Clouds,dailyrainin,SoftwareType,DateUTC
2014-01-10 00:02:00,15.0,14.0,-100.00,SSW,195,5.0,14.0,96,-99.99,,,-99.99,,2014-01-10 06:02:00,
2014-01-10 00:12:00,15.0,14.0,-100.00,SSW,195,5.0,14.0,96,-99.99,,,-99.99,,2014-01-10 06:12:00,
2014-01-10 00:22:00,15.0,14.0,-100.00,SSW,195,5.0,14.0,96,-99.99,,,-99.99,,2014-01-10 06:22:00,
2014-01-10 08:22:00,17.0,17.0,-100.00,South,180,3.0,10.0,98,-99.99,,,-99.99,,2014-01-10 14:22:00,
2014-01-10 08:32:00,17.0,17.0,-100.00,South,180,3.0,10.0,98,-99.99,,,-99.99,,2014-01-10 14:32:00,
2014-01-10 08:42:00,17.0,17.0,-100.00,South,180,3.0,10.0,98,-99.99,,,-99.99,,2014-01-10 14:42:00,
2014-01-10 08:52:00,17.0,17.0,-100.00,South,180,3.0,10.0,98,-99.99,,,-99.99,,2014-01-10 14:52:00,
2014-01-10 09:02:00,17.0,17.0,-100.00,South,180,3.0,10.0,98,-99.99,,,-99.99,,2014-01-10 15:02:00,
2014-01-10 09:22:00,19.0,18.0,-100.00,SSE,160,4.0,12.0,98,-99.99,,,-99.99,,2014-01-10 15:22:00,
2014-01-10 09:33:00,19.0,18.0,-100.00,SSE,160,4.0,12.0,98,-99.99,,,-99.99,,2014-01-10 15:33:00,
2014-01-10 09:43:00,19.0,18.0,-100.00,SSE,160,4.0,12.0,98,-99.99,,,-99.99,,2014-01-10 15:43:00,
2014-01-10 09:53:00,19.0,18.0,-100.00,SSE,160,4.0,12.0,98,-99.99,,,-99.99,,2014-01-10 15:53:00,
2014-01-10 10:02:00,21.0,20.0,-100.00,South,180,6.0,14.0,98,-99.99,,,-99.99,,2014-01-10 16:02:00,
2014-01-10 10:23:00,21.0,20.0,-100.00,South,180,6.0,14.0,98,-99.99,,,-99.99,,2014-01-10 16:23:00,
2014-01-10 10:33:00,21.0,20.0,-100.00,South,180,6.0,14.0,98,-99.99,,,-99.99,,2014-01-10 16:33:00,
2014-01-10 10:43:00,21.0,20.0,-100.00,South,180,6.0,14.0,98,-99.99,,,-99.99,,2014-01-10 16:43:00,
2014-01-10 10:52:00,21.0,20.0,-100.00,South,180,6.0,14.0,98,-99.99,,,-99.99,,2014-01-10 16:52:00,
2014-01-10 11:01:00,23.0,22.0,-100.00,South,185,5.0,11.0,99,-99.99,,,-99.99,,2014-01-10 17:01:00,
2014-01-10 11:22:00,23.0,22.0,-100.00,South,185,5.0,11.0,99,-99.99,,,-99.99,,2014-01-10 17:22:00,
2014-01-10 11:32:00,23.0,22.0,-100.00,South,185,5.0,11.0,99,-99.99,,,-99.99,,2014-01-10 17:32:00,
2014-01-10 11:43:00,23.0,22.0,-100.00,South,185,5.0,11.0,99,-99.99,,,-99.99,,2014-01-10 17:43:00,
2014-01-10 11:53:00,23.0,22.0,-100.00,South,185,5.0,11.0,99,-99.99,,,-99.99,,2014-01-10 17:53:00,
2014-01-10 12:22:00,23.0,22.0,-100.00,South,180,4.0,11.0,99,-99.99,,,-99.99,,2014-01-10 18:22:00,
2014-01-10 12:32:00,23.0,22.0,-100.00,South,180,4.0,11.0,99,-99.99,,,-99.99,,2014-01-10 18:32:00,
2014-01-10 12:42:00,23.0,22.0,-100.00,South,180,4.0,11.0,99,-99.99,,,-99.99,,2014-01-10 18:42:00,
2014-01-10 12:52:00,23.0,22.0,-100.00,South,180,4.0,11.0,99,-99.99,,,-99.99,,2014-01-10 18:52:00,
2014-01-10 13:02:00,23.0,22.0,-100.00,South,180,4.0,11.0,99,-99.99,,,-99.99,,2014-01-10 19:02:00,
2014-01-10 13:22:00,23.0,22.0,-100.00,SSW,205,5.0,11.0,99,-99.99,,,-99.99,,2014-01-10 19:22:00,
2014-01-10 13:32:00,23.0,22.0,-100.00,SSW,205,5.0,11.0,99,-99.99,,,-99.99,,2014-01-10 19:32:00,
2014-01-10 13:42:00,23.0,22.0,-100.00,SSW,205,5.0,11.0,99,-99.99,,,-99.99,,2014-01-10 19:42:00,
2014-01-10 13:52:00,23.0,22.0,-100.00,SSW,205,5.0,11.0,99,-99.99,,,-99.99,,2014-01-10 19:52:00,
2014-01-10 14:01:00,23.0,22.0,-100.00,SSW,205,5.0,11.0,99,-99.99,,,-99.99,,2014-01-10 20:01:00,
2014-01-10 14:02:00,23.0,23.0,-100.00,SSE,165,7.0,11.0,99,-99.99,,,-99.99,,2014-01-10 20:02:00,
2014-01-10 14:22:00,23.0,23.0,-100.00,SSE,165,7.0,11.0,99,-99.99,,,-99.99,,2014-01-10 20:22:00,
2014-01-10 14:32:00,23.0,23.0,-100.00,SSE,165,7.0,11.0,99,-99.99,,,-99.99,,2014-01-10 20:32:00,
2014-01-10 14:42:00,23.0,23.0,-100.00,SSE,165,7.0,11.0,99,-99.99,,,-99.99,,2014-01-10 20:42:00,
2014-01-10 14:52:00,23.0,23.0,-100.00,SSE,165,7.0,11.0,99,-99.99,,,-99.99,,2014-01-10 20:52:00,
2014-01-10 15:01:00,24.0,23.0,-100.00,South,180,5.0,12.0,99,-99.99,,,-99.99,,2014-01-10 21:01:00,
2014-01-10 15:22:00,24.0,23.0,-100.00,South,180,5.0,12.0,99,-99.99,,,-99.99,,2014-01-10 21:22:00,
2014-01-10 15:33:00,24.0,23.0,-100.00,South,180,5.0,12.0,99,-99.99,,,-99.99,,2014-01-10 21:33:00,
2014-01-10 15:44:00,24.0,23.0,-100.00,South,180,5.0,12.0,99,-99.99,,,-99.99,,2014-01-10 21:44:00,
2014-01-10 15:53:00,24.0,23.0,-100.00,South,180,5.0,12.0,99,-99.99,,,-99.99,,2014-01-10 21:53:00,
2014-01-10 16:02:00,24.0,24.0,-100.00,SSE,165,5.0,9.0,99,-99.99,,,-99.99,,2014-01-10 22:02:00,
2014-01-10 16:23:00,24.0,24.0,-100.00,SSE,165,5.0,9.0,99,-99.99,,,-99.99,,2014-01-10 22:23:00,
2014-01-10 16:34:00,24.0,24.0,-100.00,SSE,165,5.0,9.0,99,-99.99,,,-99.99,,2014-01-10 22:34:00,
2014-01-10 16:43:00,24.0,24.0,-100.00,SSE,165,5.0,9.0,99,-99.99,,,-99.99,,2014-01-10 22:43:00,
2014-01-10 16:53:00,24.0,24.0,-100.00,SSE,165,5.0,9.0,99,-99.99,,,-99.99,,2014-01-10 22:53:00,
2014-01-10 17:22:00,24.0,24.0,-100.00,SSE,165,6.0,10.0,99,-99.99,,,-99.99,,2014-01-10 23:22:00,
2014-01-10 17:33:00,24.0,24.0,-100.00,SSE,165,6.0,10.0,99,-99.99,,,-99.99,,2014-01-10 23:33:00,
2014-01-10 17:42:00,24.0,24.0,-100.00,SSE,165,6.0,10.0,99,-99.99,,,-99.99,,2014-01-10 23:42:00,
2014-01-10 17:53:00,24.0,24.0,-100.00,SSE,165,6.0,10.0,99,-99.99,,,-99.99,,2014-01-10 23:53:00,
2014-01-10 18:01:00,24.0,24.0,-100.00,SSE,150,4.0,7.0,99,-99.99,,,-99.99,,2014-01-11 00:01:00,
2014-01-10 18:02:00,24.0,24.0,-100.00,SSE,165,6.0,10.0,99,-99.99,,,-99.99,,2014-01-11 00:02:00,
2014-01-10 18:22:00,24.0,24.0,-100.00,SSE,150,4.0,7.0,99,-99.99,,,-99.99,,2014-01-11 00:22:00,
2014-01-10 18:32:00,24.0,24.0,-100.00,SSE,150,4.0,7.0,99,-99.99,,,-99.99,,2014-01-11 00:32:00,
2014-01-10 18:42:00,24.0,24.0,-100.00,SSE,150,4.0,7.0,99,-99.99,,,-99.99,,2014-01-11 00:42:00,
2014-01-10 18:52:00,24.0,24.0,-100.00,SSE,150,4.0,7.0,99,-99.99,,,-99.99,,2014-01-11 00:52:00,
2014-01-10 19:22:00,25.0,24.0,-100.00,SE,140,1.0,3.0,99,-99.99,,,-99.99,,2014-01-11 01:22:00,
2014-01-10 19:32:00,25.0,24.0,-100.00,SE,140,1.0,3.0,99,-99.99,,,-99.99,,2014-01-11 01:32:00,
2014-01-10 19:42:00,25.0,24.0,-100.00,SE,140,1.0,3.0,99,-99.99,,,-99.99,,2014-01-11 01:42:00,
2014-01-10 19:52:00,25.0,24.0,-100.00,SE,140,1.0,3.0,99,-99.99,,,-99.99,,2014-01-11 01:52:00,
2014-01-10 20:01:00,25.0,24.0,-100.00,SE,140,1.0,3.0,99,-99.99,,,-99.99,,2014-01-11 02:01:00,
2014-01-10 20:02:00,25.0,24.0,-100.00,SE,130,2.0,4.0,99,-99.99,,,-99.99,,2014-01-11 02:02:00,
2014-01-10 20:22:00,25.0,24.0,-100.00,SE,130,2.0,4.0,99,-99.99,,,-99.99,,2014-01-11 02:22:00,
2014-01-10 20:32:00,25.0,24.0,-100.00,SE,130,2.0,4.0,99,-99.99,,,-99.99,,2014-01-11 02:32:00,
2014-01-10 20:42:00,25.0,24.0,-100.00,SE,130,2.0,4.0,99,-99.99,,,-99.99,,2014-01-11 02:42:00,
2014-01-10 20:52:00,25.0,24.0,-100.00,SE,130,2.0,4.0,99,-99.99,,,-99.99,,2014-01-11 02:52:00,
2014-01-10 21:03:00,25.0,25.0,-100.00,SSE,165,2.0,3.0,99,-99.99,,,-99.99,,2014-01-11 03:03:00,
2014-01-10 21:22:00,25.0,25.0,-100.00,SSE,165,2.0,3.0,99,-99.99,,,-99.99,,2014-01-11 03:22:00,
2014-01-10 21:33:00,25.0,25.0,-100.00,SSE,165,2.0,3.0,99,-99.99,,,-99.99,,2014-01-11 03:33:00,
2014-01-10 21:43:00,25.0,25.0,-100.00,SSE,165,2.0,3.0,99,-99.99,,,-99.99,,2014-01-11 03:43:00,
2014-01-10 21:54:00,25.0,25.0,-100.00,SSE,165,2.0,3.0,99,-99.99,,,-99.99,,2014-01-11 03:54:00,
2014-01-10 22:03:00,25.0,25.0,-100.00,ESE,105,0.0,1.0,99,-99.99,,,-99.99,,2014-01-11 04:03:00,
2014-01-10 22:23:00,25.0,25.0,-100.00,ESE,105,0.0,1.0,99,-99.99,,,-99.99,,2014-01-11 04:23:00,
2014-01-10 22:33:00,25.0,25.0,-100.00,ESE,105,0.0,1.0,99,-99.99,,,-99.99,,2014-01-11 04:33:00,
2014-01-10 22:43:00,25.0,25.0,-100.00,ESE,105,0.0,1.0,99,-99.99,,,-99.99,,2014-01-11 04:43:00,
2014-01-10 22:53:00,25.0,25.0,-100.00,ESE,105,0.0,1.0,99,-99.99,,,-99.99,,2014-01-11 04:53:00,
2014-01-10 23:22:00,25.0,25.0,-100.00,ESE,105,0.0,0.0,99,-99.99,,,-99.99,,2014-01-11 05:22:00,
2014-01-10 23:33:00,25.0,25.0,-100.00,ESE,105,0.0,0.0,99,-99.99,,,-99.99,,2014-01-11 05:33:00,
2014-01-10 23:43:00,25.0,25.0,-100.00,ESE,105,0.0,0.0,99,-99.99,,,-99.99,,2014-01-11 05:43:00,
2014-01-10 23:53:00,25.0,25.0,-100.00,ESE,105,0.0,0.0,99,-99.99,,,-99.99,,2014-01-11 05:53:00,